• Join FlightAware (Why Join?)
  • Login
  • US Flag 
04:43PM EDT


 

Airport Tracker/Info


-or-


 

Live Flight TrackerFlight Track Log ✈ N546QS ✈ 31-May-2013 ✈ KCVO - KSJC

Flight Track Log - Related Links

Times and Time Zones

All times are in EDT time to prevent confusion due to time zone crossing. See the N546QS flight status page for this flight to view local times or setup timezone preferences in your user account.

Time Position Orientation Groundspeed Altitude Reporting Facility
EDT Latitude Longitude Course Direction KTS MPH feet Rate Location/Type
08:15PM 44.4439 -123.2175 205° Southwest 280 322 8,600  Level Seattle Center
08:16PM 44.3661 -123.2247 184° South 282 325 9,000 1,620 Climbing Seattle Center
08:17PM 44.2819 -123.2319 184° South 309 356 11,900 2,760 Climbing Seattle Center
08:18PM 44.1756 -123.2456 185° South 377 434 14,700 3,060 Climbing Seattle Center
08:19PM 43.8772 -123.1587 182° South  Level Estimated
08:19PM 44.0467 -123.2600 185° South 403 464 18,200  Level Seattle Center
08:20PM 43.7821 -123.2188 205° Southwest  Level FlightAware Approximate
08:20PM 43.9261 -123.2722 184° South 427 491 21,500  Level Seattle Center
08:21PM 43.8014 -123.2858 185° South 443 510 23,000 720 Climbing Seattle Center
08:22PM 43.6764 -123.3003 185° South 450 518 23,000  Level Seattle Center
08:23PM 43.5514 -123.3119 184° South 449 517 23,000 600 Level Seattle Center
08:24PM 43.4264 -123.3269 185° South 451 519 24,300 2,100 Climbing Seattle Center
08:25PM 43.2972 -123.3386 184° South 463 533 27,300 2,700 Climbing Seattle Center
08:26PM 43.1631 -123.3519 184° South 480 552 29,900 2,880 Climbing Seattle Center
08:27PM 43.0308 -123.3489 179° South 477 549 33,200 3,000 Climbing Seattle Center
08:28PM 42.9014 -123.3475 180° South 467 537 36,000 2,700 Climbing Seattle Center
08:29PM 42.7733 -123.3425 178° South 461 531 38,700 2,400 Climbing Seattle Center
08:30PM 42.6331 -123.3414 180° South 461 531 41,000 1,920 Climbing Seattle Center
08:31PM 42.5050 -123.3386 179° South 462 532 42,700 1,440 Climbing Seattle Center
08:32PM 42.3808 -123.3356 179° South 450 518 44,000 1,080 Climbing Seattle Center
08:33PM 42.2542 -123.3325 179° South 456 525 45,000 480 Climbing Seattle Center
08:34PM 42.1236 -123.3294 179° South 471 542 45,000  Level Seattle Center
08:35PM 41.9894 -123.3267 179° South 481 554 45,000  Level Seattle Center
08:36PM 41.8308 -123.3203 178° South 478 550 45,000  Level Seattle Center
08:37PM 41.6983 -123.3028 174° South 479 551 45,000  Level Seattle Center
08:38PM 41.5953 -123.2936 176° South 478 550 45,000  Level Oakland Center
08:39PM 41.4603 -123.2761 174° South 480 552 45,000  Level Oakland Center
08:40PM 41.3267 -123.2597 175° South 483 556 45,000  Level Oakland Center
08:41PM 41.1931 -123.2433 175° South 484 557 45,000  Level Oakland Center
08:42PM 41.0597 -123.2272 175° South 482 555 45,000  Level Oakland Center
08:43PM 40.9250 -123.2061 173° South 484 557 45,000  Level Oakland Center
08:44PM 40.7631 -123.1881 175° South 488 562 45,000  Level Seattle Center
08:45PM 40.6322 -123.1736 175° South 483 556 45,000  Level Oakland Center
08:46PM 40.4997 -123.1558 174° South 481 554 45,000  Level Oakland Center
08:47PM 40.3669 -123.1411 175° South 481 554 45,000  Level Oakland Center
08:48PM 40.2328 -123.1236 174° South 487 560 45,000  Level Oakland Center
08:49PM 40.0989 -123.1081 175° South 487 560 45,000  Level Oakland Center
08:50PM 39.9658 -123.0922 175° South 485 558 45,000  Level Oakland Center
08:51PM 39.8308 -123.0761 175° South 487 560 45,000 -1,020 Level Oakland Center
08:52PM 39.6975 -123.0586 174° South 485 558 43,000 -2,100 Descending Oakland Center
08:53PM 39.5447 -123.0411 175° South 459 528 40,800 -1,980 Descending Oakland Center
08:54PM 39.4294 -123.0244 174° South 461 531 39,000 -1,860 Descending Oakland Center
08:55PM 39.3019 -123.0089 175° South 461 531 37,100 -1,620 Descending Oakland Center
08:56PM 39.1742 -122.9931 175° South 461 531 35,800 -1,800 Descending Oakland Center
08:57PM 39.0194 -122.9764 175° South 464 534 33,500 -2,160 Descending Oakland Center
08:58PM 38.8897 -122.9611 175° South 468 539 31,500 -1,980 Descending Oakland Center
08:59PM 38.7581 -122.9467 175° South 475 547 29,500 -1,980 Descending Oakland Center
09:00PM 38.6236 -122.9322 175° South 482 555 27,500 -1,920 Descending Oakland Center
09:01PM 38.4933 -122.9167 175° South 472 543 25,600 -1,920 Descending Oakland Center
09:02PM 38.3672 -122.9019 175° South 456 525 23,700 -1,920 Descending Oakland Center
09:03PM 38.2431 -122.8883 175° South 450 518 21,800 -1,860 Descending Oakland Center
09:04PM 38.1283 -122.8400 162° South 435 501 19,900 -2,040 Descending Oakland Center
09:05PM 38.0031 -122.7494 150° Southeast 433 498 17,700 -1,980 Descending Oakland Center
09:06PM 37.9017 -122.6775 151° Southeast 431 496 15,900 -1,800 Descending Oakland Center
09:07PM 37.8167 -122.5833 139° Southeast 414 476 14,300 -1,740 Descending Northern Cal TRACON
09:08PM 37.7333 -122.5000 142° Southeast 410 472 12,600 -1,200 Descending Northern Cal TRACON
09:09PM 37.6500 -122.4000 136° Southeast 402 463 11,900 -1,200 Descending Northern Cal TRACON
09:10PM 37.5431 -122.3228 150° Southeast 354 407 10,100 -1,560 Descending Oakland Center
09:12PM 37.4617 -122.2783 157° South 324 373 8,500 -1,500 Descending Oakland Center
09:13PM 37.3900 -122.2300 152° Southeast 306 352 7,100 -780 Descending Oakland Center
09:14PM 37.3439 -122.1544 127° Southeast 271 312 7,000 -60 Descending Oakland Center
09:15PM 37.2986 -122.0817 128° Southeast 269 310 7,000 -60 Level Oakland Center
09:16PM 37.2542 -122.0081 127° Southeast 266 306 6,900  Descending Oakland Center
09:17PM 37.2164 -121.9442 127° Southeast 235 270 7,000 -180 Climbing Oakland Center
09:18PM 37.2017 -121.8833 107° East 211 243 6,600 -1,500 Descending Oakland Center
09:19PM 37.2494 -121.8433 34° Northeast 197 227 4,000 -2,340 Descending Oakland Center
09:20PM 37.2958 -121.8611 343° North 184 212 1,900 -1,620 Descending Oakland Center
09:21PM 37.3325 -121.8953 323° Northwest 173 199 700 4,920 Descending Oakland Center
09:22PM 37.3550 -121.9239 315° West 139 160 12,000 11,100 Climbing Oakland Center